sensor_id;sensor_type;location;lat;lon;timestamp;P1;P2;P0
70255;PMS5003;57669;52.624;-1.688;2023-03-09T00:01:32;1;1;
70255;PMS5003;57669;52.624;-1.688;2023-03-09T00:03:59;0;0;
70255;PMS5003;57669;52.624;-1.688;2023-03-09T00:06:23;0;0;
70255;PMS5003;57669;52.624;-1.688;2023-03-09T00:08:49;0;0;
70255;PMS5003;57669;52.624;-1.688;2023-03-09T00:11:15;0;0;
70255;PMS5003;57669;52.624;-1.688;2023-03-09T00:13:40;0;0;
70255;PMS5003;57669;52.624;-1.688;2023-03-09T00:16:07;0;0;
70255;PMS5003;57669;52.624;-1.688;2023-03-09T00:18:32;1;1;
70255;PMS5003;57669;52.624;-1.688;2023-03-09T00:20:57;0;0;
70255;PMS5003;57669;52.624;-1.688;2023-03-09T00:23:23;0;0;
70255;PMS5003;57669;52.624;-1.688;2023-03-09T00:25:49;1;0;
70255;PMS5003;57669;52.624;-1.688;2023-03-09T00:28:14;0;0;
70255;PMS5003;57669;52.624;-1.688;2023-03-09T00:30:40;1;1;
70255;PMS5003;57669;52.624;-1.688;2023-03-09T00:33:06;0;0;
70255;PMS5003;57669;52.624;-1.688;2023-03-09T00:35:34;0;0;
70255;PMS5003;57669;52.624;-1.688;2023-03-09T00:37:57;0;0;
70255;PMS5003;57669;52.624;-1.688;2023-03-09T00:40:22;1;1;
70255;PMS5003;57669;52.624;-1.688;2023-03-09T00:42:49;0;0;
70255;PMS5003;57669;52.624;-1.688;2023-03-09T00:45:14;0;0;
70255;PMS5003;57669;52.624;-1.688;2023-03-09T00:47:39;0;0;
70255;PMS5003;57669;52.624;-1.688;2023-03-09T00:50:06;0;0;
70255;PMS5003;57669;52.624;-1.688;2023-03-09T00:52:31;0;0;
70255;PMS5003;57669;52.624;-1.688;2023-03-09T00:54:57;0;0;
70255;PMS5003;57669;52.624;-1.688;2023-03-09T00:57:22;1;0;
70255;PMS5003;57669;52.624;-1.688;2023-03-09T00:59:48;0;0;
70255;PMS5003;57669;52.624;-1.688;2023-03-09T01:02:13;0;0;
70255;PMS5003;57669;52.624;-1.688;2023-03-09T01:04:39;0;0;
70255;PMS5003;57669;52.624;-1.688;2023-03-09T01:07:05;1;0;
70255;PMS5003;57669;52.624;-1.688;2023-03-09T01:09:30;1;1;
70255;PMS5003;57669;52.624;-1.688;2023-03-09T01:11:56;1;1;
70255;PMS5003;57669;52.624;-1.688;2023-03-09T01:14:22;0;0;
70255;PMS5003;57669;52.624;-1.688;2023-03-09T01:16:47;1;1;
70255;PMS5003;57669;52.624;-1.688;2023-03-09T01:19:13;0;0;
70255;PMS5003;57669;52.624;-1.688;2023-03-09T01:21:39;0;0;
70255;PMS5003;57669;52.624;-1.688;2023-03-09T01:24:05;0;0;
70255;PMS5003;57669;52.624;-1.688;2023-03-09T01:26:30;0;0;
70255;PMS5003;57669;52.624;-1.688;2023-03-09T01:28:56;0;0;
70255;PMS5003;57669;52.624;-1.688;2023-03-09T01:31:21;0;0;
70255;PMS5003;57669;52.624;-1.688;2023-03-09T01:33:47;0;0;
70255;PMS5003;57669;52.624;-1.688;2023-03-09T01:36:14;0;0;
70255;PMS5003;57669;52.624;-1.688;2023-03-09T01:38:38;0;0;
70255;PMS5003;57669;52.624;-1.688;2023-03-09T01:41:04;1;0;
70255;PMS5003;57669;52.624;-1.688;2023-03-09T01:43:32;0;0;
70255;PMS5003;57669;52.624;-1.688;2023-03-09T01:48:21;0;0;
70255;PMS5003;57669;52.624;-1.688;2023-03-09T01:50:47;0;0;
70255;PMS5003;57669;52.624;-1.688;2023-03-09T01:53:13;0;0;
70255;PMS5003;57669;52.624;-1.688;2023-03-09T01:55:39;0;0;
70255;PMS5003;57669;52.624;-1.688;2023-03-09T01:58:04;1;0;
70255;PMS5003;57669;52.624;-1.688;2023-03-09T02:00:29;0;0;
70255;PMS5003;57669;52.624;-1.688;2023-03-09T02:02:56;0;0;
70255;PMS5003;57669;52.624;-1.688;2023-03-09T02:05:22;1;1;
70255;PMS5003;57669;52.624;-1.688;2023-03-09T02:07:46;0;0;
70255;PMS5003;57669;52.624;-1.688;2023-03-09T02:10:14;0;0;
70255;PMS5003;57669;52.624;-1.688;2023-03-09T02:12:38;2;2;
70255;PMS5003;57669;52.624;-1.688;2023-03-09T02:15:03;2;1;
70255;PMS5003;57669;52.624;-1.688;2023-03-09T02:17:29;0;0;
70255;PMS5003;57669;52.624;-1.688;2023-03-09T02:34:28;0;0;
70255;PMS5003;57669;52.624;-1.688;2023-03-09T02:36:54;1;1;
70255;PMS5003;57669;52.624;-1.688;2023-03-09T02:39:22;0;0;
70255;PMS5003;57669;52.624;-1.688;2023-03-09T02:41:45;1;1;
70255;PMS5003;57669;52.624;-1.688;2023-03-09T02:44:11;0;0;
70255;PMS5003;57669;52.624;-1.688;2023-03-09T02:46:36;2;0;
70255;PMS5003;57669;52.624;-1.688;2023-03-09T02:49:02;0;0;
70255;PMS5003;57669;52.624;-1.688;2023-03-09T02:51:28;0;0;
70255;PMS5003;57669;52.624;-1.688;2023-03-09T02:53:53;0;0;
70255;PMS5003;57669;52.624;-1.688;2023-03-09T02:56:19;2;1;
70255;PMS5003;57669;52.624;-1.688;2023-03-09T02:58:45;0;0;
70255;PMS5003;57669;52.624;-1.688;2023-03-09T03:01:10;0;0;
70255;PMS5003;57669;52.624;-1.688;2023-03-09T03:03:36;0;0;
70255;PMS5003;57669;52.624;-1.688;2023-03-09T03:06:02;1;1;
70255;PMS5003;57669;52.624;-1.688;2023-03-09T03:08:27;1;1;
70255;PMS5003;57669;52.624;-1.688;2023-03-09T03:10:53;0;0;
70255;PMS5003;57669;52.624;-1.688;2023-03-09T03:13:18;0;0;
70255;PMS5003;57669;52.624;-1.688;2023-03-09T03:15:44;0;0;
70255;PMS5003;57669;52.624;-1.688;2023-03-09T03:18:10;0;0;
70255;PMS5003;57669;52.624;-1.688;2023-03-09T03:20:35;0;0;
70255;PMS5003;57669;52.624;-1.688;2023-03-09T03:23:01;0;0;
70255;PMS5003;57669;52.624;-1.688;2023-03-09T03:25:27;1;1;
70255;PMS5003;57669;52.624;-1.688;2023-03-09T03:27:52;0;0;
70255;PMS5003;57669;52.624;-1.688;2023-03-09T03:30:18;1;1;
70255;PMS5003;57669;52.624;-1.688;2023-03-09T03:44:52;1;1;
70255;PMS5003;57669;52.624;-1.688;2023-03-09T03:47:18;1;1;
70255;PMS5003;57669;52.624;-1.688;2023-03-09T03:49:43;1;1;
70255;PMS5003;57669;52.624;-1.688;2023-03-09T03:52:09;0;0;
70255;PMS5003;57669;52.624;-1.688;2023-03-09T03:54:35;1;0;
70255;PMS5003;57669;52.624;-1.688;2023-03-09T03:57:00;0;0;
70255;PMS5003;57669;52.624;-1.688;2023-03-09T03:59:26;0;0;
70255;PMS5003;57669;52.624;-1.688;2023-03-09T04:01:51;0;0;
70255;PMS5003;57669;52.624;-1.688;2023-03-09T04:04:17;1;1;
70255;PMS5003;57669;52.624;-1.688;2023-03-09T04:06:43;0;0;
70255;PMS5003;57669;52.624;-1.688;2023-03-09T04:09:08;1;0;
70255;PMS5003;57669;52.624;-1.688;2023-03-09T04:11:34;0;0;
70255;PMS5003;57669;52.624;-1.688;2023-03-09T04:14:00;0;0;
70255;PMS5003;57669;52.624;-1.688;2023-03-09T04:16:25;1;1;
70255;PMS5003;57669;52.624;-1.688;2023-03-09T04:18:51;0;0;
70255;PMS5003;57669;52.624;-1.688;2023-03-09T04:21:17;1;0;
70255;PMS5003;57669;52.624;-1.688;2023-03-09T04:23:42;0;0;
70255;PMS5003;57669;52.624;-1.688;2023-03-09T04:26:09;1;1;
70255;PMS5003;57669;52.624;-1.688;2023-03-09T04:28:34;0;0;
70255;PMS5003;57669;52.624;-1.688;2023-03-09T04:30:59;1;1;
70255;PMS5003;57669;52.624;-1.688;2023-03-09T04:33:25;0;0;
70255;PMS5003;57669;52.624;-1.688;2023-03-09T04:35:51;0;0;
70255;PMS5003;57669;52.624;-1.688;2023-03-09T04:38:16;0;0;
70255;PMS5003;57669;52.624;-1.688;2023-03-09T04:40:42;0;0;
70255;PMS5003;57669;52.624;-1.688;2023-03-09T04:43:08;0;0;
70255;PMS5003;57669;52.624;-1.688;2023-03-09T04:45:33;1;1;
70255;PMS5003;57669;52.624;-1.688;2023-03-09T04:47:59;0;0;
70255;PMS5003;57669;52.624;-1.688;2023-03-09T04:50:25;0;0;
70255;PMS5003;57669;52.624;-1.688;2023-03-09T04:52:50;0;0;
70255;PMS5003;57669;52.624;-1.688;2023-03-09T04:55:16;0;0;
70255;PMS5003;57669;52.624;-1.688;2023-03-09T04:57:42;0;0;
70255;PMS5003;57669;52.624;-1.688;2023-03-09T05:00:08;1;1;
70255;PMS5003;57669;52.624;-1.688;2023-03-09T05:02:33;0;0;
70255;PMS5003;57669;52.624;-1.688;2023-03-09T05:04:58;0;0;
70255;PMS5003;57669;52.624;-1.688;2023-03-09T05:07:24;0;0;
70255;PMS5003;57669;52.624;-1.688;2023-03-09T05:09:50;1;0;
70255;PMS5003;57669;52.624;-1.688;2023-03-09T05:12:15;1;1;
70255;PMS5003;57669;52.624;-1.688;2023-03-09T05:14:41;0;0;
70255;PMS5003;57669;52.624;-1.688;2023-03-09T05:17:07;1;1;
70255;PMS5003;57669;52.624;-1.688;2023-03-09T05:19:32;0;0;
70255;PMS5003;57669;52.624;-1.688;2023-03-09T05:21:58;0;0;
70255;PMS5003;57669;52.624;-1.688;2023-03-09T05:24:24;0;0;
70255;PMS5003;57669;52.624;-1.688;2023-03-09T05:26:49;0;0;
70255;PMS5003;57669;52.624;-1.688;2023-03-09T05:29:15;1;0;
70255;PMS5003;57669;52.624;-1.688;2023-03-09T05:31:40;0;0;
70255;PMS5003;57669;52.624;-1.688;2023-03-09T05:34:06;0;0;
70255;PMS5003;57669;52.624;-1.688;2023-03-09T05:36:32;0;0;
70255;PMS5003;57669;52.624;-1.688;2023-03-09T05:38:58;0;0;
70255;PMS5003;57669;52.624;-1.688;2023-03-09T05:41:23;0;0;
70255;PMS5003;57669;52.624;-1.688;2023-03-09T05:43:49;0;0;
70255;PMS5003;57669;52.624;-1.688;2023-03-09T05:46:15;0;0;
70255;PMS5003;57669;52.624;-1.688;2023-03-09T05:48:40;0;0;
70255;PMS5003;57669;52.624;-1.688;2023-03-09T05:51:06;0;0;
70255;PMS5003;57669;52.624;-1.688;2023-03-09T05:53:32;1;1;
70255;PMS5003;57669;52.624;-1.688;2023-03-09T05:55:57;0;0;
70255;PMS5003;57669;52.624;-1.688;2023-03-09T05:58:23;0;0;
70255;PMS5003;57669;52.624;-1.688;2023-03-09T06:00:48;0;0;
70255;PMS5003;57669;52.624;-1.688;2023-03-09T06:03:14;0;0;
70255;PMS5003;57669;52.624;-1.688;2023-03-09T06:05:40;1;0;
70255;PMS5003;57669;52.624;-1.688;2023-03-09T06:08:05;0;0;
70255;PMS5003;57669;52.624;-1.688;2023-03-09T06:10:31;0;0;
70255;PMS5003;57669;52.624;-1.688;2023-03-09T06:12:57;1;1;
70255;PMS5003;57669;52.624;-1.688;2023-03-09T06:15:22;1;0;
70255;PMS5003;57669;52.624;-1.688;2023-03-09T06:17:48;0;0;
70255;PMS5003;57669;52.624;-1.688;2023-03-09T06:20:14;1;1;
70255;PMS5003;57669;52.624;-1.688;2023-03-09T06:22:39;0;0;
70255;PMS5003;57669;52.624;-1.688;2023-03-09T06:25:05;1;1;
70255;PMS5003;57669;52.624;-1.688;2023-03-09T06:27:32;1;1;
70255;PMS5003;57669;52.624;-1.688;2023-03-09T06:29:56;0;0;
70255;PMS5003;57669;52.624;-1.688;2023-03-09T06:32:22;0;0;
70255;PMS5003;57669;52.624;-1.688;2023-03-09T06:34:47;0;0;
70255;PMS5003;57669;52.624;-1.688;2023-03-09T06:37:13;0;0;
70255;PMS5003;57669;52.624;-1.688;2023-03-09T06:39:39;0;0;
70255;PMS5003;57669;52.624;-1.688;2023-03-09T06:42:05;1;0;
70255;PMS5003;57669;52.624;-1.688;2023-03-09T06:44:30;0;0;
70255;PMS5003;57669;52.624;-1.688;2023-03-09T06:46:56;0;0;
70255;PMS5003;57669;52.624;-1.688;2023-03-09T06:49:21;0;0;
70255;PMS5003;57669;52.624;-1.688;2023-03-09T06:51:47;1;1;
70255;PMS5003;57669;52.624;-1.688;2023-03-09T06:54:13;0;0;
70255;PMS5003;57669;52.624;-1.688;2023-03-09T06:56:38;0;0;
70255;PMS5003;57669;52.624;-1.688;2023-03-09T06:59:04;0;0;
70255;PMS5003;57669;52.624;-1.688;2023-03-09T07:01:30;0;0;
70255;PMS5003;57669;52.624;-1.688;2023-03-09T07:03:55;1;1;
70255;PMS5003;57669;52.624;-1.688;2023-03-09T07:06:21;1;1;
70255;PMS5003;57669;52.624;-1.688;2023-03-09T07:08:47;0;0;
70255;PMS5003;57669;52.624;-1.688;2023-03-09T07:11:12;0;0;
70255;PMS5003;57669;52.624;-1.688;2023-03-09T07:13:38;0;0;
70255;PMS5003;57669;52.624;-1.688;2023-03-09T07:16:04;0;0;
70255;PMS5003;57669;52.624;-1.688;2023-03-09T07:18:29;0;0;
70255;PMS5003;57669;52.624;-1.688;2023-03-09T07:20:57;1;1;
70255;PMS5003;57669;52.624;-1.688;2023-03-09T07:23:20;0;0;
70255;PMS5003;57669;52.624;-1.688;2023-03-09T07:25:46;0;0;
70255;PMS5003;57669;52.624;-1.688;2023-03-09T07:28:12;0;0;
70255;PMS5003;57669;52.624;-1.688;2023-03-09T07:30:38;0;0;
70255;PMS5003;57669;52.624;-1.688;2023-03-09T07:33:03;0;0;
70255;PMS5003;57669;52.624;-1.688;2023-03-09T07:35:29;1;1;
70255;PMS5003;57669;52.624;-1.688;2023-03-09T07:37:54;1;1;
70255;PMS5003;57669;52.624;-1.688;2023-03-09T07:40:20;0;0;
70255;PMS5003;57669;52.624;-1.688;2023-03-09T07:42:47;0;0;
70255;PMS5003;57669;52.624;-1.688;2023-03-09T07:45:11;0;0;
70255;PMS5003;57669;52.624;-1.688;2023-03-09T07:47:37;0;0;
70255;PMS5003;57669;52.624;-1.688;2023-03-09T07:50:03;1;1;
70255;PMS5003;57669;52.624;-1.688;2023-03-09T07:52:28;1;1;
70255;PMS5003;57669;52.624;-1.688;2023-03-09T07:54:54;0;0;
70255;PMS5003;57669;52.624;-1.688;2023-03-09T07:57:20;1;1;
70255;PMS5003;57669;52.624;-1.688;2023-03-09T07:59:45;0;0;
70255;PMS5003;57669;52.624;-1.688;2023-03-09T08:02:11;1;0;
70255;PMS5003;57669;52.624;-1.688;2023-03-09T08:04:37;0;0;
70255;PMS5003;57669;52.624;-1.688;2023-03-09T08:07:02;1;1;
70255;PMS5003;57669;52.624;-1.688;2023-03-09T08:09:28;0;0;
70255;PMS5003;57669;52.624;-1.688;2023-03-09T08:11:54;0;0;
70255;PMS5003;57669;52.624;-1.688;2023-03-09T08:14:19;0;0;
70255;PMS5003;57669;52.624;-1.688;2023-03-09T08:16:45;0;0;
70255;PMS5003;57669;52.624;-1.688;2023-03-09T08:19:10;0;0;
70255;PMS5003;57669;52.624;-1.688;2023-03-09T08:21:36;0;0;
70255;PMS5003;57669;52.624;-1.688;2023-03-09T08:24:02;1;0;
70255;PMS5003;57669;52.624;-1.688;2023-03-09T08:26:27;0;0;
70255;PMS5003;57669;52.624;-1.688;2023-03-09T08:28:53;0;0;
70255;PMS5003;57669;52.624;-1.688;2023-03-09T08:31:19;0;0;
70255;PMS5003;57669;52.624;-1.688;2023-03-09T08:33:44;1;1;
70255;PMS5003;57669;52.624;-1.688;2023-03-09T08:36:11;1;1;
70255;PMS5003;57669;52.624;-1.688;2023-03-09T08:38:36;0;0;
70255;PMS5003;57669;52.624;-1.688;2023-03-09T08:41:01;1;0;
70255;PMS5003;57669;52.624;-1.688;2023-03-09T08:43:27;0;0;
70255;PMS5003;57669;52.624;-1.688;2023-03-09T08:45:53;0;0;
70255;PMS5003;57669;52.624;-1.688;2023-03-09T08:48:18;0;0;
70255;PMS5003;57669;52.624;-1.688;2023-03-09T08:50:44;0;0;
70255;PMS5003;57669;52.624;-1.688;2023-03-09T08:53:10;0;0;
70255;PMS5003;57669;52.624;-1.688;2023-03-09T08:55:35;0;0;
70255;PMS5003;57669;52.624;-1.688;2023-03-09T08:58:01;0;0;
70255;PMS5003;57669;52.624;-1.688;2023-03-09T09:00:27;1;1;
70255;PMS5003;57669;52.624;-1.688;2023-03-09T09:02:52;0;0;
70255;PMS5003;57669;52.624;-1.688;2023-03-09T09:05:18;0;0;
70255;PMS5003;57669;52.624;-1.688;2023-03-09T09:07:44;1;0;
70255;PMS5003;57669;52.624;-1.688;2023-03-09T09:10:09;1;1;
70255;PMS5003;57669;52.624;-1.688;2023-03-09T09:12:35;1;1;
70255;PMS5003;57669;52.624;-1.688;2023-03-09T09:15:00;0;0;
70255;PMS5003;57669;52.624;-1.688;2023-03-09T09:17:26;0;0;
70255;PMS5003;57669;52.624;-1.688;2023-03-09T09:19:52;0;0;
70255;PMS5003;57669;52.624;-1.688;2023-03-09T09:22:17;0;0;
70255;PMS5003;57669;52.624;-1.688;2023-03-09T09:24:43;0;0;
70255;PMS5003;57669;52.624;-1.688;2023-03-09T09:27:09;1;1;
70255;PMS5003;57669;52.624;-1.688;2023-03-09T09:29:35;0;0;
70255;PMS5003;57669;52.624;-1.688;2023-03-09T09:32:00;0;0;
70255;PMS5003;57669;52.624;-1.688;2023-03-09T09:34:28;1;0;
70255;PMS5003;57669;52.624;-1.688;2023-03-09T09:36:51;0;0;
70255;PMS5003;57669;52.624;-1.688;2023-03-09T09:39:17;1;1;
70255;PMS5003;57669;52.624;-1.688;2023-03-09T09:41:43;1;0;
70255;PMS5003;57669;52.624;-1.688;2023-03-09T09:44:10;1;1;
70255;PMS5003;57669;52.624;-1.688;2023-03-09T09:46:34;0;0;
70255;PMS5003;57669;52.624;-1.688;2023-03-09T09:49:00;0;0;
70255;PMS5003;57669;52.624;-1.688;2023-03-09T09:53:54;1;1;
70255;PMS5003;57669;52.624;-1.688;2023-03-09T09:56:18;0;0;
70255;PMS5003;57669;52.624;-1.688;2023-03-09T09:58:44;0;0;
70255;PMS5003;57669;52.624;-1.688;2023-03-09T10:01:11;0;0;
70255;PMS5003;57669;52.624;-1.688;2023-03-09T10:03:34;1;1;
70255;PMS5003;57669;52.624;-1.688;2023-03-09T10:06:00;1;1;
70255;PMS5003;57669;52.624;-1.688;2023-03-09T10:08:26;2;2;
70255;PMS5003;57669;52.624;-1.688;2023-03-09T10:10:51;2;2;
70255;PMS5003;57669;52.624;-1.688;2023-03-09T10:13:19;3;3;
70255;PMS5003;57669;52.624;-1.688;2023-03-09T10:15:42;3;2;
70255;PMS5003;57669;52.624;-1.688;2023-03-09T10:18:08;1;1;
70255;PMS5003;57669;52.624;-1.688;2023-03-09T10:22:56;3;3;
70255;PMS5003;57669;52.624;-1.688;2023-03-09T10:25:22;2;2;
70255;PMS5003;57669;52.624;-1.688;2023-03-09T10:27:48;1;1;
70255;PMS5003;57669;52.624;-1.688;2023-03-09T10:30:15;3;3;
70255;PMS5003;57669;52.624;-1.688;2023-03-09T10:32:41;2;2;
70255;PMS5003;57669;52.624;-1.688;2023-03-09T10:35:05;2;2;
70255;PMS5003;57669;52.624;-1.688;2023-03-09T10:37:32;4;3;
70255;PMS5003;57669;52.624;-1.688;2023-03-09T10:39:55;3;3;
70255;PMS5003;57669;52.624;-1.688;2023-03-09T10:42:21;2;2;
70255;PMS5003;57669;52.624;-1.688;2023-03-09T10:47:12;2;2;
70255;PMS5003;57669;52.624;-1.688;2023-03-09T10:49:38;2;2;
70255;PMS5003;57669;52.624;-1.688;2023-03-09T10:52:04;1;1;
70255;PMS5003;57669;52.624;-1.688;2023-03-09T10:54:31;2;2;
70255;PMS5003;57669;52.624;-1.688;2023-03-09T10:56:55;3;3;
70255;PMS5003;57669;52.624;-1.688;2023-03-09T10:59:21;4;3;
70255;PMS5003;57669;52.624;-1.688;2023-03-09T11:01:46;4;4;
70255;PMS5003;57669;52.624;-1.688;2023-03-09T11:06:38;3;3;
70255;PMS5003;57669;52.624;-1.688;2023-03-09T11:09:05;3;3;
70255;PMS5003;57669;52.624;-1.688;2023-03-09T11:11:29;3;3;
70255;PMS5003;57669;52.624;-1.688;2023-03-09T11:13:55;4;3;
70255;PMS5003;57669;52.624;-1.688;2023-03-09T11:16:21;2;2;
70255;PMS5003;57669;52.624;-1.688;2023-03-09T11:18:46;4;3;
70255;PMS5003;57669;52.624;-1.688;2023-03-09T11:23:38;2;2;
70255;PMS5003;57669;52.624;-1.688;2023-03-09T11:26:05;2;2;
70255;PMS5003;57669;52.624;-1.688;2023-03-09T11:28:33;2;2;
70255;PMS5003;57669;52.624;-1.688;2023-03-09T11:30:54;4;3;
70255;PMS5003;57669;52.624;-1.688;2023-03-09T11:33:20;2;2;
70255;PMS5003;57669;52.624;-1.688;2023-03-09T11:35:46;3;3;
70255;PMS5003;57669;52.624;-1.688;2023-03-09T11:38:12;4;4;
70255;PMS5003;57669;52.624;-1.688;2023-03-09T11:40:36;2;2;
70255;PMS5003;57669;52.624;-1.688;2023-03-09T11:43:03;3;3;
70255;PMS5003;57669;52.624;-1.688;2023-03-09T11:45:29;3;3;
70255;PMS5003;57669;52.624;-1.688;2023-03-09T11:47:54;4;3;
70255;PMS5003;57669;52.624;-1.688;2023-03-09T11:50:20;4;4;
70255;PMS5003;57669;52.624;-1.688;2023-03-09T11:52:46;3;3;
70255;PMS5003;57669;52.624;-1.688;2023-03-09T11:55:11;2;2;
70255;PMS5003;57669;52.624;-1.688;2023-03-09T11:57:37;3;3;
70255;PMS5003;57669;52.624;-1.688;2023-03-09T12:00:04;3;3;
70255;PMS5003;57669;52.624;-1.688;2023-03-09T12:02:29;4;3;
70255;PMS5003;57669;52.624;-1.688;2023-03-09T12:04:53;4;4;
70255;PMS5003;57669;52.624;-1.688;2023-03-09T12:07:20;5;5;
70255;PMS5003;57669;52.624;-1.688;2023-03-09T12:09:47;6;6;
70255;PMS5003;57669;52.624;-1.688;2023-03-09T12:14:36;4;4;
70255;PMS5003;57669;52.624;-1.688;2023-03-09T12:17:02;5;5;
70255;PMS5003;57669;52.624;-1.688;2023-03-09T12:19:28;6;6;
70255;PMS5003;57669;52.624;-1.688;2023-03-09T12:24:21;5;5;
70255;PMS5003;57669;52.624;-1.688;2023-03-09T12:26:45;7;7;
70255;PMS5003;57669;52.624;-1.688;2023-03-09T12:31:36;4;4;
70255;PMS5003;57669;52.624;-1.688;2023-03-09T12:34:05;6;6;
70255;PMS5003;57669;52.624;-1.688;2023-03-09T12:36:28;9;6;
70255;PMS5003;57669;52.624;-1.688;2023-03-09T12:41:24;7;7;
70255;PMS5003;57669;52.624;-1.688;2023-03-09T12:43:44;6;6;
70255;PMS5003;57669;52.624;-1.688;2023-03-09T12:48:35;5;5;
70255;PMS5003;57669;52.624;-1.688;2023-03-09T12:51:02;9;8;
70255;PMS5003;57669;52.624;-1.688;2023-03-09T12:53:26;5;5;
70255;PMS5003;57669;52.624;-1.688;2023-03-09T12:55:52;7;7;
70255;PMS5003;57669;52.624;-1.688;2023-03-09T13:03:13;5;5;
70255;PMS5003;57669;52.624;-1.688;2023-03-09T13:08:02;3;3;
70255;PMS5003;57669;52.624;-1.688;2023-03-09T13:10:28;10;9;
70255;PMS5003;57669;52.624;-1.688;2023-03-09T13:12:54;8;7;
70255;PMS5003;57669;52.624;-1.688;2023-03-09T13:15:20;8;8;
70255;PMS5003;57669;52.624;-1.688;2023-03-09T13:17:44;5;5;
70255;PMS5003;57669;52.624;-1.688;2023-03-09T13:22:36;6;6;
70255;PMS5003;57669;52.624;-1.688;2023-03-09T13:27:26;8;8;
70255;PMS5003;57669;52.624;-1.688;2023-03-09T13:29:52;8;8;
70255;PMS5003;57669;52.624;-1.688;2023-03-09T13:32:20;8;8;
70255;PMS5003;57669;52.624;-1.688;2023-03-09T13:34:44;8;8;
70255;PMS5003;57669;52.624;-1.688;2023-03-09T13:37:12;7;7;
70255;PMS5003;57669;52.624;-1.688;2023-03-09T13:39:34;8;8;
70255;PMS5003;57669;52.624;-1.688;2023-03-09T13:42:01;8;8;
70255;PMS5003;57669;52.624;-1.688;2023-03-09T13:44:25;11;8;
70255;PMS5003;57669;52.624;-1.688;2023-03-09T13:46:51;8;8;
70255;PMS5003;57669;52.624;-1.688;2023-03-09T13:49:18;8;8;
70255;PMS5003;57669;52.624;-1.688;2023-03-09T13:51:48;6;5;
70255;PMS5003;57669;52.624;-1.688;2023-03-09T13:56:34;8;8;
70255;PMS5003;57669;52.624;-1.688;2023-03-09T13:59:00;8;7;
70255;PMS5003;57669;52.624;-1.688;2023-03-09T14:01:26;9;7;
70255;PMS5003;57669;52.624;-1.688;2023-03-09T14:06:26;10;10;
70255;PMS5003;57669;52.624;-1.688;2023-03-09T14:08:43;11;10;
70255;PMS5003;57669;52.624;-1.688;2023-03-09T14:11:10;10;9;
70255;PMS5003;57669;52.624;-1.688;2023-03-09T14:13:34;9;6;
70255;PMS5003;57669;52.624;-1.688;2023-03-09T14:16:00;6;6;
70255;PMS5003;57669;52.624;-1.688;2023-03-09T14:18:32;9;9;
70255;PMS5003;57669;52.624;-1.688;2023-03-09T14:23:16;9;9;
70255;PMS5003;57669;52.624;-1.688;2023-03-09T14:25:42;9;7;
70255;PMS5003;57669;52.624;-1.688;2023-03-09T14:30:35;9;8;
70255;PMS5003;57669;52.624;-1.688;2023-03-09T14:32:59;8;8;
70255;PMS5003;57669;52.624;-1.688;2023-03-09T14:35:28;12;10;
70255;PMS5003;57669;52.624;-1.688;2023-03-09T14:37:50;12;10;
